createdAt,value
2018-10-17T00:02:09.186Z,93.50
2018-10-17T00:04:37.314Z,93.50
2018-10-17T00:07:05.423Z,93.10
2018-10-17T00:09:33.547Z,92.80
2018-10-17T00:12:01.697Z,92.60
2018-10-17T00:14:29.794Z,92.70
2018-10-17T00:16:57.980Z,92.70
2018-10-17T00:19:26.000Z,92.80
2018-10-17T00:21:54.089Z,92.90
2018-10-17T00:24:22.252Z,92.50
2018-10-17T00:26:50.376Z,92.70
2018-10-17T00:29:18.472Z,92.70
2018-10-17T00:31:46.613Z,92.60
2018-10-17T00:34:14.719Z,92.50
2018-10-17T00:36:42.897Z,92.60
2018-10-17T00:39:11.628Z,92.60
2018-10-17T00:41:40.129Z,92.80
2018-10-17T00:44:08.257Z,93.00
2018-10-17T00:46:36.344Z,93.30
2018-10-17T00:49:04.507Z,93.70
2018-10-17T00:51:32.671Z,93.70
2018-10-17T00:54:00.805Z,93.60
2018-10-17T00:56:28.902Z,93.60
2018-10-17T00:59:05.181Z,93.70
2018-10-17T01:01:33.323Z,93.70
2018-10-17T01:04:01.700Z,93.70
2018-10-17T01:06:30.162Z,93.80
2018-10-17T01:08:58.438Z,93.70
2018-10-17T01:11:26.658Z,93.80
2018-10-17T01:13:54.775Z,93.80
2018-10-17T01:16:22.925Z,93.90
2018-10-17T01:18:51.034Z,94.10
2018-10-17T01:21:19.110Z,94.30
2018-10-17T01:23:47.264Z,94.30
2018-10-17T01:26:15.349Z,94.50
2018-10-17T01:28:43.527Z,94.90
2018-10-17T01:31:11.871Z,94.60
2018-10-17T01:33:39.935Z,94.60
2018-10-17T01:36:08.051Z,94.80
2018-10-17T01:38:36.403Z,94.90
2018-10-17T01:41:04.908Z,95.00
2018-10-17T01:43:33.048Z,95.00
2018-10-17T01:46:01.175Z,94.90
2018-10-17T01:48:29.643Z,95.00
2018-10-17T01:50:58.122Z,94.90
2018-10-17T01:53:26.291Z,95.10
2018-10-17T01:55:54.505Z,95.10
2018-10-17T01:58:22.618Z,95.30
2018-10-17T02:00:50.720Z,95.50
2018-10-17T02:03:18.782Z,95.70
2018-10-17T02:05:46.854Z,95.70
2018-10-17T02:08:14.906Z,95.80
2018-10-17T02:10:43.022Z,95.70
2018-10-17T02:13:11.196Z,95.20
2018-10-17T02:15:39.318Z,95.00
2018-10-17T02:18:07.458Z,95.20
2018-10-17T02:20:35.612Z,95.20
2018-10-17T02:23:03.798Z,95.30
2018-10-17T02:25:31.861Z,95.70
2018-10-17T02:28:00.023Z,95.50
2018-10-17T02:30:28.153Z,95.80
2018-10-17T02:32:56.480Z,95.50
2018-10-17T02:35:24.594Z,95.70
2018-10-17T02:37:52.738Z,96.00
2018-10-17T02:40:20.854Z,96.10
2018-10-17T02:42:48.986Z,96.20
2018-10-17T02:45:17.078Z,96.40
2018-10-17T02:47:45.189Z,96.80
2018-10-17T02:50:13.528Z,96.70
2018-10-17T02:52:42.486Z,96.80
2018-10-17T02:55:10.762Z,96.70
2018-10-17T02:57:39.143Z,96.50
2018-10-17T03:00:08.446Z,96.50
2018-10-17T03:02:36.544Z,96.10
2018-10-17T03:05:05.083Z,96.10
2018-10-17T03:07:33.201Z,95.80
2018-10-17T03:10:01.345Z,95.70
2018-10-17T03:12:29.488Z,95.40
2018-10-17T03:14:57.646Z,95.70
2018-10-17T03:17:25.772Z,95.90
2018-10-17T03:19:53.942Z,96.20
2018-10-17T03:22:22.039Z,96.40
2018-10-17T03:24:50.178Z,96.70
2018-10-17T03:27:18.381Z,96.60
2018-10-17T03:29:46.534Z,96.60
2018-10-17T03:32:14.672Z,96.20
2018-10-17T03:34:42.809Z,96.00
2018-10-17T03:37:11.023Z,96.00
2018-10-17T03:39:39.112Z,95.70
2018-10-17T03:42:07.260Z,95.90
2018-10-17T03:44:35.479Z,96.00
2018-10-17T03:47:03.608Z,96.40
2018-10-17T03:49:31.796Z,96.30
2018-10-17T03:51:59.879Z,96.40
2018-10-17T03:54:27.981Z,96.50
2018-10-17T03:56:56.156Z,96.50
2018-10-17T03:59:24.545Z,96.80
2018-10-17T04:01:52.486Z,96.70
2018-10-17T04:04:20.587Z,97.00
2018-10-17T04:06:49.200Z,96.70
2018-10-17T04:09:17.400Z,97.00
2018-10-17T04:11:45.565Z,97.10
2018-10-17T04:14:14.238Z,96.80
2018-10-17T04:16:42.415Z,96.80
2018-10-17T04:19:10.645Z,96.90
2018-10-17T04:21:39.280Z,97.00
2018-10-17T04:24:07.380Z,97.00
2018-10-17T04:26:35.497Z,96.70
2018-10-17T04:29:03.634Z,96.90
2018-10-17T04:31:31.724Z,96.70
2018-10-17T04:33:59.854Z,96.80
2018-10-17T04:36:28.114Z,97.10
2018-10-17T04:38:56.256Z,97.10
2018-10-17T04:41:24.511Z,97.00
2018-10-17T04:43:52.693Z,96.90
2018-10-17T04:46:20.831Z,96.90
2018-10-17T04:48:48.937Z,97.10
2018-10-17T04:51:17.624Z,97.10
2018-10-17T04:53:45.665Z,97.00
2018-10-17T04:56:13.755Z,96.80
2018-10-17T04:58:41.866Z,96.90
2018-10-17T05:01:10.111Z,97.00
2018-10-17T05:03:38.183Z,96.80
2018-10-17T05:06:06.260Z,96.60
2018-10-17T05:08:34.330Z,96.60
2018-10-17T05:11:02.472Z,96.60
2018-10-17T05:13:30.685Z,96.50
2018-10-17T05:15:58.853Z,96.80
2018-10-17T05:18:26.936Z,96.40
2018-10-17T05:20:55.063Z,96.60
2018-10-17T05:23:23.429Z,96.80
2018-10-17T05:25:51.524Z,96.80
2018-10-17T05:28:19.698Z,97.10
2018-10-17T05:30:47.792Z,97.20
2018-10-17T05:33:15.992Z,97.50
2018-10-17T05:35:44.263Z,97.80
2018-10-17T05:38:12.348Z,97.70
2018-10-17T05:40:40.551Z,97.40
2018-10-17T05:43:08.790Z,97.30
2018-10-17T05:45:36.860Z,97.20
2018-10-17T05:48:04.982Z,97.10
2018-10-17T05:50:33.300Z,97.10
2018-10-17T05:53:01.599Z,97.20
2018-10-17T05:55:29.696Z,96.70
2018-10-17T05:57:58.052Z,97.40
2018-10-17T06:00:26.135Z,97.50
2018-10-17T06:02:54.290Z,97.60
2018-10-17T06:05:22.432Z,97.50
2018-10-17T06:07:50.639Z,97.50
2018-10-17T06:10:18.842Z,97.50
2018-10-17T06:12:47.066Z,97.60
2018-10-17T06:15:15.194Z,97.70
2018-10-17T06:17:43.333Z,97.80
2018-10-17T06:20:11.396Z,97.50
2018-10-17T06:22:39.588Z,97.30
2018-10-17T06:25:08.333Z,97.20
2018-10-17T06:27:36.446Z,97.10
2018-10-17T06:30:05.758Z,97.00
2018-10-17T06:32:33.857Z,96.60
2018-10-17T06:35:02.098Z,95.90
2018-10-17T06:37:30.180Z,95.70
2018-10-17T06:39:58.272Z,95.60
2018-10-17T06:42:26.382Z,95.60
2018-10-17T06:44:54.451Z,96.00
2018-10-17T06:47:22.558Z,96.10
2018-10-17T06:49:50.718Z,96.40
2018-10-17T06:52:18.820Z,96.50
2018-10-17T06:54:47.028Z,96.30
2018-10-17T06:57:15.135Z,96.50
2018-10-17T06:59:43.274Z,96.70
2018-10-17T07:02:11.508Z,96.90
2018-10-17T07:04:39.861Z,96.60
2018-10-17T07:07:08.215Z,96.40
2018-10-17T07:09:36.455Z,96.10
2018-10-17T07:12:05.172Z,95.90
2018-10-17T07:14:33.464Z,95.90
2018-10-17T07:17:01.581Z,95.80
2018-10-17T07:19:29.695Z,95.60
2018-10-17T07:21:58.209Z,95.40
2018-10-17T07:24:26.621Z,95.30
2018-10-17T07:26:54.757Z,95.20
2018-10-17T07:29:22.990Z,95.00
2018-10-17T07:31:51.062Z,94.80
2018-10-17T07:34:19.353Z,94.50
2018-10-17T07:36:47.617Z,94.20
2018-10-17T07:39:15.764Z,94.00
2018-10-17T07:41:43.946Z,93.80
2018-10-17T07:44:12.076Z,93.70
2018-10-17T07:46:40.153Z,93.50
2018-10-17T07:49:08.240Z,93.30
2018-10-17T07:51:36.312Z,93.00
2018-10-17T07:54:04.496Z,92.90
2018-10-17T07:56:32.600Z,92.60
2018-10-17T07:59:00.695Z,92.60
2018-10-17T08:01:28.754Z,92.40
2018-10-17T08:03:56.858Z,91.90
2018-10-17T08:06:25.214Z,91.70
2018-10-17T08:08:53.648Z,91.50
2018-10-17T08:11:21.954Z,90.90
2018-10-17T08:13:50.356Z,90.50
2018-10-17T08:16:18.705Z,90.40
2018-10-17T08:18:46.936Z,90.30
2018-10-17T08:21:15.495Z,90.10
2018-10-17T08:23:43.752Z,89.70
2018-10-17T08:26:12.090Z,89.10
2018-10-17T08:28:40.322Z,89.10
2018-10-17T08:31:08.799Z,88.80
2018-10-17T08:33:36.998Z,88.20
2018-10-17T08:36:05.759Z,87.50
2018-10-17T08:38:33.830Z,86.60
2018-10-17T08:41:02.193Z,85.70
2018-10-17T08:43:30.246Z,84.60
2018-10-17T08:45:58.347Z,84.40
2018-10-17T08:48:26.651Z,84.00
2018-10-17T08:50:54.775Z,83.70
2018-10-17T08:53:22.898Z,82.60
2018-10-17T08:55:51.024Z,82.10
2018-10-17T08:58:19.198Z,81.40
2018-10-17T09:00:47.337Z,80.40
2018-10-17T09:03:15.422Z,79.80
2018-10-17T09:05:43.544Z,79.20
2018-10-17T09:08:12.133Z,79.60
2018-10-17T09:10:40.312Z,79.10
2018-10-17T09:13:08.459Z,77.90
2018-10-17T09:15:38.383Z,78.00
2018-10-17T09:18:04.925Z,77.30
2018-10-17T09:20:33.347Z,76.90
2018-10-17T09:23:01.207Z,76.70
2018-10-17T09:25:29.393Z,75.90
2018-10-17T09:27:57.498Z,75.20
2018-10-17T09:30:25.765Z,74.80
2018-10-17T09:32:53.678Z,74.10
2018-10-17T09:35:21.853Z,73.40
2018-10-17T09:37:50.004Z,72.90
2018-10-17T09:40:18.193Z,72.70
2018-10-17T09:42:46.299Z,70.90
2018-10-17T09:45:14.590Z,70.80
2018-10-17T09:47:42.653Z,70.60
2018-10-17T09:50:11.252Z,71.30
2018-10-17T09:52:39.476Z,70.10
2018-10-17T09:55:08.238Z,69.40
2018-10-17T09:57:36.474Z,68.50
2018-10-17T10:00:08.978Z,66.90
2018-10-17T10:02:37.222Z,66.40
2018-10-17T10:05:05.862Z,66.90
2018-10-17T10:07:34.134Z,66.40
2018-10-17T10:10:02.417Z,66.30
2018-10-17T10:12:30.562Z,65.40
2018-10-17T10:14:58.777Z,65.10
2018-10-17T10:17:27.222Z,64.80
2018-10-17T10:19:55.367Z,64.10
2018-10-17T10:22:23.658Z,64.00
2018-10-17T10:24:52.006Z,63.90
2018-10-17T10:27:20.187Z,63.40
2018-10-17T10:29:48.472Z,63.00
2018-10-17T10:32:16.740Z,62.70
2018-10-17T10:34:45.125Z,63.20
2018-10-17T10:37:13.517Z,62.70
2018-10-17T10:39:41.908Z,62.70
2018-10-17T10:42:10.241Z,61.90
2018-10-17T10:44:38.500Z,61.80
2018-10-17T10:47:06.805Z,62.00
2018-10-17T10:49:34.918Z,62.00
2018-10-17T10:52:03.055Z,62.00
2018-10-17T10:54:31.125Z,62.10
2018-10-17T10:56:59.261Z,61.50
2018-10-17T10:59:27.556Z,61.20
2018-10-17T11:01:55.673Z,60.40
2018-10-17T11:04:23.813Z,60.00
2018-10-17T11:06:51.907Z,60.00
2018-10-17T11:09:19.998Z,59.80
2018-10-17T11:11:48.145Z,59.10
2018-10-17T11:14:16.517Z,60.10
2018-10-17T11:16:44.671Z,59.30
2018-10-17T11:19:12.931Z,59.40
2018-10-17T11:21:41.231Z,58.90
2018-10-17T11:24:09.483Z,58.90
2018-10-17T11:26:37.638Z,58.90
2018-10-17T11:29:05.761Z,59.50
2018-10-17T11:31:33.887Z,59.40
2018-10-17T11:34:02.004Z,59.30
2018-10-17T11:36:30.197Z,58.90
2018-10-17T11:38:58.546Z,57.90
2018-10-17T11:41:26.948Z,58.20
2018-10-17T11:43:55.053Z,57.70
2018-10-17T11:46:23.295Z,57.70
2018-10-17T11:48:51.563Z,57.80
2018-10-17T11:51:19.799Z,57.50
2018-10-17T11:53:47.892Z,57.20
2018-10-17T11:56:16.260Z,57.20
2018-10-17T11:58:44.560Z,57.20
2018-10-17T12:01:12.896Z,57.00
2018-10-17T12:03:41.263Z,57.00
2018-10-17T12:06:09.607Z,56.50
2018-10-17T12:08:37.894Z,56.20
2018-10-17T12:11:06.292Z,56.10
2018-10-17T12:13:34.382Z,56.40
2018-10-17T12:16:02.479Z,55.90
2018-10-17T12:18:30.632Z,55.60
2018-10-17T12:20:58.790Z,55.80
2018-10-17T12:23:26.883Z,55.60
2018-10-17T12:25:56.198Z,55.70
2018-10-17T12:28:24.408Z,56.10
2018-10-17T12:30:52.473Z,56.30
2018-10-17T12:33:20.599Z,55.80
2018-10-17T12:35:48.711Z,56.00
2018-10-17T12:38:16.827Z,55.60
2018-10-17T12:40:45.141Z,55.50
2018-10-17T12:43:13.090Z,55.10
2018-10-17T12:45:41.268Z,54.70
2018-10-17T12:48:09.326Z,54.60
2018-10-17T12:50:37.448Z,54.70
2018-10-17T12:53:05.697Z,54.60
2018-10-17T12:55:33.675Z,54.60
2018-10-17T12:58:01.993Z,54.30
2018-10-17T13:00:30.067Z,54.10
2018-10-17T13:02:58.172Z,54.50
2018-10-17T13:05:26.273Z,54.80
2018-10-17T13:07:54.383Z,54.90
2018-10-17T13:10:22.427Z,55.00
2018-10-17T13:12:50.499Z,54.80
2018-10-17T13:15:18.574Z,54.40
2018-10-17T13:17:46.734Z,54.80
2018-10-17T13:20:15.055Z,55.00
2018-10-17T13:22:43.190Z,54.90
2018-10-17T13:25:11.563Z,54.80
2018-10-17T13:27:39.726Z,54.80
2018-10-17T13:30:08.225Z,54.80
2018-10-17T13:32:36.407Z,55.10
2018-10-17T13:35:05.062Z,54.70
2018-10-17T13:37:33.089Z,54.40
2018-10-17T13:40:01.272Z,53.60
2018-10-17T13:42:29.407Z,53.30
2018-10-17T13:44:57.543Z,53.40
2018-10-17T13:47:25.624Z,53.80
2018-10-17T13:49:54.097Z,53.80
2018-10-17T13:52:22.202Z,53.80
2018-10-17T13:54:50.437Z,53.40
2018-10-17T13:57:18.517Z,53.70
2018-10-17T13:59:46.655Z,54.00
2018-10-17T14:02:14.745Z,54.10
2018-10-17T14:04:42.856Z,54.30
2018-10-17T14:07:11.019Z,54.80
2018-10-17T14:09:39.058Z,54.70
2018-10-17T14:12:07.478Z,54.40
2018-10-17T14:14:35.536Z,54.50
2018-10-17T14:17:03.666Z,55.10
2018-10-17T14:19:31.799Z,55.60
2018-10-17T14:21:59.905Z,55.90
2018-10-17T14:24:28.037Z,55.60
2018-10-17T14:26:56.361Z,55.70
2018-10-17T14:29:24.448Z,55.00
2018-10-17T14:31:52.493Z,54.90
2018-10-17T14:34:20.631Z,54.80
2018-10-17T14:36:48.719Z,54.60
2018-10-17T14:39:16.894Z,54.80
2018-10-17T14:41:45.070Z,54.80
2018-10-17T14:44:13.150Z,55.10
2018-10-17T14:46:41.238Z,55.30
2018-10-17T14:49:09.411Z,55.90
2018-10-17T14:51:37.537Z,56.30
2018-10-17T14:54:05.909Z,57.00
2018-10-17T14:56:33.993Z,57.50
2018-10-17T14:59:02.152Z,57.70
2018-10-17T15:01:30.492Z,58.70
2018-10-17T15:03:58.621Z,58.40
2018-10-17T15:06:26.829Z,58.70
2018-10-17T15:08:55.056Z,59.10
2018-10-17T15:11:23.169Z,59.40
2018-10-17T15:13:51.281Z,59.70
2018-10-17T15:16:19.372Z,59.80
2018-10-17T15:18:47.472Z,60.10
2018-10-17T15:21:15.662Z,60.40
2018-10-17T15:23:43.715Z,60.80
2018-10-17T15:26:11.798Z,60.80
2018-10-17T15:28:39.977Z,61.10
2018-10-17T15:31:08.163Z,61.20
2018-10-17T15:33:36.204Z,61.60
2018-10-17T15:36:04.493Z,61.60
2018-10-17T15:38:32.569Z,61.80
2018-10-17T15:41:00.714Z,62.30
2018-10-17T15:43:28.862Z,63.00
2018-10-17T15:45:57.021Z,63.60
2018-10-17T15:48:25.188Z,64.10
2018-10-17T15:50:53.317Z,64.50
2018-10-17T15:53:21.470Z,65.10
2018-10-17T15:55:49.585Z,65.70
2018-10-17T15:58:17.684Z,66.40
2018-10-17T16:00:45.818Z,67.20
2018-10-17T16:03:13.917Z,67.90
2018-10-17T16:05:42.028Z,67.70
2018-10-17T16:08:10.249Z,68.70
2018-10-17T16:10:38.244Z,70.00
2018-10-17T16:13:06.342Z,70.10
2018-10-17T16:15:39.155Z,70.50
2018-10-17T16:18:07.886Z,70.70
2018-10-17T16:20:36.059Z,71.10
2018-10-17T16:23:04.272Z,71.90
2018-10-17T16:25:32.277Z,72.50
2018-10-17T16:28:00.435Z,72.80
2018-10-17T16:30:28.669Z,73.40
2018-10-17T16:32:56.711Z,73.90
2018-10-17T16:35:24.965Z,74.30
2018-10-17T16:37:53.135Z,74.50
2018-10-17T16:40:21.276Z,74.80
2018-10-17T16:42:49.371Z,75.40
2018-10-17T16:45:17.464Z,75.70
2018-10-17T16:47:45.638Z,76.20
2018-10-17T16:50:13.741Z,76.60
2018-10-17T16:52:41.881Z,76.80
2018-10-17T16:55:10.064Z,77.50
2018-10-17T16:57:38.145Z,77.30
2018-10-17T17:00:07.860Z,77.50
2018-10-17T17:02:35.972Z,77.70
2018-10-17T17:05:04.281Z,78.20
2018-10-17T17:07:32.377Z,79.10
2018-10-17T17:10:00.515Z,79.10
2018-10-17T17:12:28.731Z,79.00
2018-10-17T17:14:56.869Z,79.30
2018-10-17T17:17:24.977Z,79.40
2018-10-17T17:19:53.072Z,79.70
2018-10-17T17:22:21.224Z,80.30
2018-10-17T17:24:49.363Z,81.50
2018-10-17T17:27:18.640Z,81.50
2018-10-17T17:29:46.803Z,82.00
2018-10-17T17:32:14.857Z,82.30
2018-10-17T17:34:43.000Z,82.80
2018-10-17T17:37:11.112Z,83.60
2018-10-17T17:39:39.307Z,84.40
2018-10-17T17:42:07.427Z,84.40
2018-10-17T17:44:35.594Z,85.00
2018-10-17T17:47:03.664Z,85.50
2018-10-17T17:49:31.776Z,86.00
2018-10-17T17:51:59.987Z,86.50
2018-10-17T17:54:28.090Z,86.90
2018-10-17T17:56:56.191Z,87.30
2018-10-17T17:59:24.272Z,87.60
2018-10-17T18:01:52.370Z,88.00
2018-10-17T18:04:20.616Z,88.80
2018-10-17T18:06:48.732Z,89.30
2018-10-17T18:09:16.858Z,89.60
2018-10-17T18:11:45.017Z,90.00
2018-10-17T18:14:13.165Z,90.00
2018-10-17T18:16:41.234Z,90.20
2018-10-17T18:19:09.346Z,90.50
2018-10-17T18:21:37.430Z,90.70
2018-10-17T18:24:05.516Z,91.00
2018-10-17T18:26:33.705Z,91.20
2018-10-17T18:29:01.801Z,91.40
2018-10-17T18:31:30.019Z,91.40
2018-10-17T18:33:58.254Z,91.20
2018-10-17T18:36:26.373Z,91.30
2018-10-17T18:38:55.273Z,91.50
2018-10-17T18:41:23.463Z,91.70
2018-10-17T18:43:51.592Z,91.70
2018-10-17T18:46:19.694Z,92.10
2018-10-17T18:48:47.788Z,91.90
2018-10-17T18:51:16.032Z,91.70
2018-10-17T18:53:44.280Z,91.60
2018-10-17T18:56:12.361Z,91.70
2018-10-17T18:58:40.485Z,92.00
2018-10-17T19:01:08.647Z,92.50
2018-10-17T19:03:36.797Z,92.60
2018-10-17T19:06:05.325Z,92.90
2018-10-17T19:08:33.383Z,93.00
2018-10-17T19:11:01.559Z,93.40
2018-10-17T19:13:29.738Z,93.70
2018-10-17T19:15:57.886Z,93.70
2018-10-17T19:18:26.002Z,93.50
2018-10-17T19:20:54.194Z,93.30
2018-10-17T19:23:22.522Z,93.10
2018-10-17T19:25:50.619Z,93.10
2018-10-17T19:28:18.712Z,93.50
2018-10-17T19:30:46.975Z,93.70
2018-10-17T19:33:15.629Z,94.00
2018-10-17T19:35:43.712Z,94.20
2018-10-17T19:38:11.835Z,94.60
2018-10-17T19:40:40.338Z,94.70
2018-10-17T19:43:09.119Z,94.70
2018-10-17T19:45:37.627Z,94.60
2018-10-17T19:48:05.865Z,94.90
2018-10-17T19:50:33.975Z,94.90
2018-10-17T19:53:02.134Z,95.20
2018-10-17T19:55:30.255Z,95.50
2018-10-17T19:57:58.407Z,95.70
2018-10-17T20:00:26.495Z,96.00
2018-10-17T20:02:54.634Z,95.90
2018-10-17T20:05:22.874Z,95.70
2018-10-17T20:07:51.215Z,95.50
2018-10-17T20:10:19.299Z,95.60
2018-10-17T20:12:47.410Z,95.60
2018-10-17T20:15:15.688Z,95.70
2018-10-17T20:17:43.716Z,95.70
2018-10-17T20:20:11.841Z,95.70
2018-10-17T20:22:39.899Z,95.60
2018-10-17T20:25:08.084Z,95.50
2018-10-17T20:27:36.170Z,95.40
2018-10-17T20:30:04.811Z,95.30
2018-10-17T20:32:32.924Z,95.30
2018-10-17T20:35:01.196Z,95.30
2018-10-17T20:37:29.225Z,95.60
2018-10-17T20:39:57.399Z,96.10
2018-10-17T20:42:25.621Z,96.00
2018-10-17T20:44:53.596Z,96.40
2018-10-17T20:47:22.835Z,96.40
2018-10-17T20:49:50.949Z,96.80
2018-10-17T20:52:19.059Z,96.90
2018-10-17T20:54:47.372Z,97.20
2018-10-17T20:57:15.477Z,97.20
2018-10-17T20:59:43.661Z,97.10
2018-10-17T21:02:11.795Z,97.20
2018-10-17T21:04:40.002Z,97.40
2018-10-17T21:07:08.087Z,97.60
2018-10-17T21:09:36.205Z,97.60
2018-10-17T21:12:04.323Z,97.70
2018-10-17T21:14:32.434Z,97.60
2018-10-17T21:17:00.524Z,97.80
2018-10-17T21:19:28.679Z,97.80
2018-10-17T21:21:56.820Z,98.00
2018-10-17T21:24:25.400Z,98.00
2018-10-17T21:26:53.853Z,98.10
2018-10-17T21:29:22.071Z,97.70
2018-10-17T21:31:50.270Z,97.60
2018-10-17T21:34:19.165Z,97.70
2018-10-17T21:36:47.331Z,97.70
2018-10-17T21:39:15.612Z,98.10
2018-10-17T21:41:43.893Z,98.10
2018-10-17T21:44:12.150Z,97.80
2018-10-17T21:46:40.956Z,97.60
2018-10-17T21:49:09.952Z,97.20
2018-10-17T21:51:38.757Z,97.20
2018-10-17T21:54:07.187Z,97.10
2018-10-17T21:56:35.593Z,97.50
2018-10-17T21:59:03.831Z,97.80
2018-10-17T22:01:32.077Z,97.90
2018-10-17T22:04:00.328Z,97.80
2018-10-17T22:06:28.426Z,97.90
2018-10-17T22:08:56.556Z,98.00
2018-10-17T22:11:24.651Z,98.10
2018-10-17T22:13:52.831Z,98.30
2018-10-17T22:16:20.947Z,98.30
2018-10-17T22:18:49.098Z,98.20
2018-10-17T22:21:17.264Z,98.10
2018-10-17T22:23:45.412Z,98.00
2018-10-17T22:26:13.597Z,98.20
2018-10-17T22:28:41.684Z,98.00
2018-10-17T22:31:09.876Z,97.90
2018-10-17T22:33:37.989Z,97.90
2018-10-17T22:36:06.091Z,97.90
2018-10-17T22:38:34.177Z,98.00
2018-10-17T22:41:02.350Z,98.00
2018-10-17T22:43:30.432Z,98.00
2018-10-17T22:45:58.572Z,97.90
2018-10-17T22:48:26.660Z,98.00
2018-10-17T22:50:54.747Z,98.10
2018-10-17T22:53:22.903Z,98.40
2018-10-17T22:55:51.080Z,98.40
2018-10-17T22:58:19.262Z,98.50
2018-10-17T23:00:47.408Z,98.50
2018-10-17T23:03:15.551Z,98.60
2018-10-17T23:05:43.650Z,98.60
2018-10-17T23:08:11.892Z,98.80
2018-10-17T23:10:40.000Z,98.90
2018-10-17T23:13:08.092Z,99.10
2018-10-17T23:15:36.245Z,99.40
2018-10-17T23:18:04.474Z,99.70
2018-10-17T23:20:32.603Z,99.80
2018-10-17T23:23:00.719Z,99.90
2018-10-17T23:25:28.919Z,99.90
2018-10-17T23:27:57.096Z,99.90
2018-10-17T23:30:25.212Z,99.90
2018-10-17T23:32:53.347Z,99.90
2018-10-17T23:35:21.478Z,99.90
2018-10-17T23:37:49.609Z,99.80
2018-10-17T23:40:17.785Z,99.40
2018-10-17T23:42:46.105Z,99.60
2018-10-17T23:45:14.102Z,99.70
2018-10-17T23:47:42.299Z,99.90
2018-10-17T23:50:10.469Z,99.90
2018-10-17T23:52:38.491Z,99.90
2018-10-17T23:55:07.058Z,99.90
2018-10-17T23:57:35.174Z,99.90
